createdAt,value
2018-06-10T00:00:09.983Z,22.50
2018-06-10T00:02:38.263Z,18.90
2018-06-10T00:05:06.808Z,22.20
2018-06-10T00:07:36.041Z,24.83
2018-06-10T00:10:04.344Z,23.83
2018-06-10T00:12:32.700Z,25.20
2018-06-10T00:15:00.989Z,25.47
2018-06-10T00:17:29.257Z,24.63
2018-06-10T00:19:57.514Z,23.40
2018-06-10T00:22:25.776Z,22.07
2018-06-10T00:24:54.033Z,26.53
2018-06-10T00:27:22.360Z,22.23
2018-06-10T00:29:50.649Z,26.03
2018-06-10T00:32:18.902Z,22.10
2018-06-10T00:34:47.181Z,21.33
2018-06-10T00:37:15.441Z,19.50
2018-06-10T00:39:43.841Z,22.10
2018-06-10T00:42:12.129Z,20.93
2018-06-10T00:44:40.407Z,24.17
2018-06-10T00:47:08.664Z,23.63
2018-06-10T00:49:36.965Z,27.30
2018-06-10T00:52:05.844Z,21.53
2018-06-10T00:54:34.106Z,26.00
2018-06-10T00:57:02.385Z,24.10
2018-06-10T00:59:30.681Z,21.77
2018-06-10T01:01:58.946Z,26.23
2018-06-10T01:04:27.212Z,21.30
2018-06-10T01:06:55.508Z,29.47
2018-06-10T01:09:23.767Z,32.67
2018-06-10T01:11:52.031Z,29.40
2018-06-10T01:14:20.329Z,41.77
2018-06-10T01:16:48.598Z,32.73
2018-06-10T01:19:16.957Z,40.50
2018-06-10T01:21:45.225Z,37.20
2018-06-10T01:24:13.477Z,39.63
2018-06-10T01:26:47.137Z,34.53
2018-06-10T01:29:15.393Z,33.38
2018-06-10T01:31:43.679Z,34.73
2018-06-10T01:34:11.967Z,35.77
2018-06-10T01:36:40.305Z,38.30
2018-06-10T01:39:08.553Z,35.67
2018-06-10T01:41:36.912Z,33.93
2018-06-10T01:44:05.469Z,32.10
2018-06-10T01:46:33.713Z,35.07
2018-06-10T01:49:02.064Z,38.43
2018-06-10T01:51:30.320Z,40.27
2018-06-10T01:53:58.984Z,37.33
2018-06-10T01:56:27.264Z,33.70
2018-06-10T01:58:55.548Z,35.63
2018-06-10T02:01:23.848Z,32.90
2018-06-10T02:03:52.110Z,35.27
2018-06-10T02:06:23.335Z,30.13
2018-06-10T02:08:51.627Z,37.97
2018-06-10T02:11:20.014Z,32.67
2018-06-10T02:13:48.274Z,27.07
2018-06-10T02:16:16.528Z,28.90
2018-06-10T02:18:44.791Z,32.67
2018-06-10T02:21:13.106Z,31.00
2018-06-10T02:23:41.377Z,33.60
2018-06-10T02:26:09.778Z,28.83
2018-06-10T02:28:38.137Z,28.03
2018-06-10T02:31:06.529Z,32.37
2018-06-10T02:33:34.804Z,29.87
2018-06-10T02:36:03.181Z,32.90
2018-06-10T02:38:31.555Z,36.97
2018-06-10T02:40:59.840Z,32.23
2018-06-10T02:43:28.113Z,35.17
2018-06-10T02:45:56.362Z,37.27
2018-06-10T02:48:24.687Z,39.23
2018-06-10T02:50:53.036Z,36.93
2018-06-10T02:53:21.317Z,35.17
2018-06-10T02:55:49.698Z,34.67
2018-06-10T02:58:18.168Z,38.10
2018-06-10T03:00:46.397Z,32.60
2018-06-10T03:03:15.177Z,30.30
2018-06-10T03:05:43.445Z,27.80
2018-06-10T03:08:11.806Z,31.80
2018-06-10T03:10:40.714Z,28.63
2018-06-10T03:13:09.063Z,32.50
2018-06-10T03:15:38.255Z,28.13
2018-06-10T03:18:06.569Z,23.87
2018-06-10T03:20:34.904Z,27.77
2018-06-10T03:23:03.701Z,27.10
2018-06-10T03:25:32.084Z,27.70
2018-06-10T03:28:00.353Z,28.13
2018-06-10T03:30:28.722Z,26.70
2018-06-10T03:32:56.984Z,25.70
2018-06-10T03:35:25.266Z,28.33
2018-06-10T03:37:53.652Z,29.77
2018-06-10T03:40:21.948Z,26.87
2018-06-10T03:42:50.194Z,23.77
2018-06-10T03:45:18.487Z,25.93
2018-06-10T03:47:46.886Z,26.80
2018-06-10T03:50:15.141Z,23.77
2018-06-10T03:52:43.389Z,25.73
2018-06-10T03:55:11.709Z,26.30
2018-06-10T03:57:39.955Z,22.50
2018-06-10T04:00:08.269Z,28.50
2018-06-10T04:02:36.541Z,25.60
2018-06-10T04:05:04.907Z,27.73
2018-06-10T04:07:33.199Z,29.80
2018-06-10T04:10:01.565Z,26.50
2018-06-10T04:12:29.828Z,33.90
2018-06-10T04:14:58.124Z,33.13
2018-06-10T04:17:26.404Z,29.03
2018-06-10T04:19:54.765Z,29.53
2018-06-10T04:22:23.017Z,28.07
2018-06-10T04:24:51.322Z,27.20
2018-06-10T04:27:20.558Z,28.62
2018-06-10T04:29:48.892Z,29.20
2018-06-10T04:32:17.792Z,26.87
2018-06-10T04:34:46.064Z,26.60
2018-06-10T04:37:14.446Z,26.53
2018-06-10T04:39:42.730Z,26.17
2018-06-10T04:42:11.808Z,28.77
2018-06-10T04:44:40.060Z,26.97
2018-06-10T04:47:08.376Z,27.70
2018-06-10T04:49:36.646Z,29.00
2018-06-10T04:52:04.910Z,26.60
2018-06-10T04:54:33.210Z,23.10
2018-06-10T04:57:01.464Z,24.63
2018-06-10T04:59:29.723Z,23.40
2018-06-10T05:01:58.034Z,24.17
2018-06-10T05:04:26.295Z,25.80
2018-06-10T05:06:54.553Z,27.90
2018-06-10T05:09:22.889Z,23.97
2018-06-10T05:11:51.157Z,21.67
2018-06-10T05:14:19.504Z,21.43
2018-06-10T05:16:48.056Z,20.23
2018-06-10T05:19:16.316Z,22.60
2018-06-10T05:21:44.646Z,21.80
2018-06-10T05:24:13.028Z,21.53
2018-06-10T05:26:41.307Z,24.80
2018-06-10T05:29:10.003Z,23.17
2018-06-10T05:31:38.379Z,21.27
2018-06-10T05:34:06.968Z,23.17
2018-06-10T05:36:35.328Z,20.93
2018-06-10T05:39:04.005Z,20.07
2018-06-10T05:41:32.284Z,19.37
2018-06-10T05:44:00.542Z,18.23
2018-06-10T05:46:28.854Z,20.03
2018-06-10T05:48:57.216Z,18.40
2018-06-10T05:51:25.618Z,20.40
2018-06-10T05:53:53.990Z,20.83
2018-06-10T05:56:22.316Z,21.70
2018-06-10T05:58:50.831Z,17.20
2018-06-10T06:01:19.105Z,17.70
2018-06-10T06:03:47.394Z,18.50
2018-06-10T06:06:15.674Z,17.60
2018-06-10T06:08:43.951Z,19.17
2018-06-10T06:11:12.361Z,17.37
2018-06-10T06:13:40.609Z,25.03
2018-06-10T06:16:08.990Z,20.37
2018-06-10T06:18:37.357Z,19.30
2018-06-10T06:21:05.830Z,24.37
2018-06-10T06:23:34.121Z,21.70
2018-06-10T06:26:02.586Z,19.17
2018-06-10T06:28:30.872Z,23.67
2018-06-10T06:30:59.253Z,21.90
2018-06-10T06:33:27.513Z,22.50
2018-06-10T06:35:55.812Z,25.10
2018-06-10T06:38:24.087Z,22.93
2018-06-10T06:40:52.448Z,23.23
2018-06-10T06:43:20.720Z,23.50
2018-06-10T06:45:49.019Z,22.47
2018-06-10T06:48:17.480Z,22.90
2018-06-10T06:50:45.760Z,21.40
2018-06-10T06:53:14.041Z,21.60
2018-06-10T06:55:43.092Z,21.60
2018-06-10T06:58:11.418Z,24.27
2018-06-10T07:00:39.704Z,22.77
2018-06-10T07:03:08.123Z,20.93
2018-06-10T07:05:36.736Z,21.60
2018-06-10T07:08:05.242Z,21.97
2018-06-10T07:10:34.109Z,20.60
2018-06-10T07:13:02.775Z,23.07
2018-06-10T07:15:31.054Z,22.23
2018-06-10T07:17:59.358Z,22.70
2018-06-10T07:20:27.645Z,20.97
2018-06-10T07:22:55.931Z,22.77
2018-06-10T07:25:24.287Z,20.37
2018-06-10T07:27:52.573Z,26.00
2018-06-10T07:30:20.868Z,19.20
2018-06-10T07:32:49.221Z,20.07
2018-06-10T07:35:17.471Z,21.50
2018-06-10T07:37:45.881Z,18.53
2018-06-10T07:40:14.465Z,17.67
2018-06-10T07:42:42.936Z,20.90
2018-06-10T07:45:11.203Z,17.73
2018-06-10T07:47:39.489Z,17.60
2018-06-10T07:50:07.775Z,18.20
2018-06-10T07:52:36.072Z,17.70
2018-06-10T07:55:04.420Z,16.70
2018-06-10T07:57:32.696Z,16.80
2018-06-10T08:00:01.031Z,20.40
2018-06-10T08:02:29.276Z,21.50
2018-06-10T08:04:57.640Z,19.90
2018-06-10T08:07:25.926Z,19.00
2018-06-10T08:09:54.283Z,20.70
2018-06-10T08:12:22.660Z,20.10
2018-06-10T08:14:50.957Z,18.03
2018-06-10T08:17:19.203Z,16.50
2018-06-10T08:19:47.875Z,17.13
2018-06-10T08:22:16.794Z,20.40
2018-06-10T08:24:45.048Z,17.30
2018-06-10T08:27:13.762Z,16.70
2018-06-10T08:29:42.045Z,18.67
2018-06-10T08:32:10.802Z,16.50
2018-06-10T08:34:39.095Z,15.83
2018-06-10T08:37:07.485Z,14.37
2018-06-10T08:39:35.759Z,15.30
2018-06-10T08:42:04.041Z,13.27
2018-06-10T08:44:32.416Z,13.80
2018-06-10T08:47:01.053Z,13.00
2018-06-10T08:49:29.321Z,14.37
2018-06-10T08:51:57.600Z,13.23
2018-06-10T08:54:26.424Z,13.07
2018-06-10T08:56:54.771Z,12.33
2018-06-10T08:59:23.200Z,13.93
2018-06-10T09:01:51.476Z,13.10
2018-06-10T09:04:19.740Z,14.80
2018-06-10T09:06:48.021Z,13.67
2018-06-10T09:09:16.293Z,12.93
2018-06-10T09:11:44.540Z,13.23
2018-06-10T09:14:12.864Z,12.27
2018-06-10T09:16:41.126Z,14.20
2018-06-10T09:19:09.414Z,13.10
2018-06-10T09:21:37.772Z,12.93
2018-06-10T09:24:06.034Z,13.00
2018-06-10T09:26:34.280Z,12.00
2018-06-10T09:29:02.686Z,12.50
2018-06-10T09:31:31.022Z,12.20
2018-06-10T09:33:59.457Z,14.43
2018-06-10T09:36:27.837Z,13.93
2018-06-10T09:38:56.117Z,13.27
2018-06-10T09:41:24.409Z,12.20
2018-06-10T09:43:52.689Z,12.93
2018-06-10T09:46:21.053Z,12.90
2018-06-10T09:48:49.311Z,14.40
2018-06-10T09:51:17.625Z,13.13
2018-06-10T09:53:45.873Z,13.20
2018-06-10T09:56:14.165Z,13.10
2018-06-10T09:58:42.732Z,13.43
2018-06-10T10:01:11.017Z,12.40
2018-06-10T10:03:39.301Z,13.20
2018-06-10T10:06:07.993Z,14.63
2018-06-10T10:08:36.264Z,12.70
2018-06-10T10:11:04.631Z,13.57
2018-06-10T10:13:32.912Z,14.90
2018-06-10T10:16:01.169Z,13.60
2018-06-10T10:18:29.556Z,13.90
2018-06-10T10:20:57.870Z,16.30
2018-06-10T10:23:26.135Z,14.07
2018-06-10T10:25:54.492Z,15.70
2018-06-10T10:28:22.756Z,15.83
2018-06-10T10:30:51.068Z,13.80
2018-06-10T10:33:19.696Z,12.20
2018-06-10T10:35:48.018Z,13.97
2018-06-10T10:38:16.401Z,15.63
2018-06-10T10:40:44.761Z,16.10
2018-06-10T10:43:13.032Z,14.70
2018-06-10T10:45:41.297Z,15.00
2018-06-10T10:48:09.802Z,14.73
2018-06-10T10:50:38.069Z,15.07
2018-06-10T10:53:06.427Z,15.37
2018-06-10T10:55:36.015Z,14.77
2018-06-10T10:58:04.461Z,12.90
2018-06-10T11:00:32.721Z,16.07
2018-06-10T11:03:01.093Z,18.07
2018-06-10T11:05:29.372Z,17.27
2018-06-10T11:07:58.153Z,16.20
2018-06-10T11:10:26.429Z,17.53
2018-06-10T11:12:54.703Z,16.53
2018-06-10T11:15:22.980Z,17.70
2018-06-10T11:17:51.264Z,15.90
2018-06-10T11:20:19.568Z,15.80
2018-06-10T11:22:47.834Z,17.97
2018-06-10T11:25:16.189Z,15.13
2018-06-10T11:27:44.492Z,15.03
2018-06-10T11:30:12.847Z,17.93
2018-06-10T11:32:41.109Z,18.20
2018-06-10T11:35:09.443Z,17.13
2018-06-10T11:37:38.060Z,15.90
2018-06-10T11:40:06.357Z,14.73
2018-06-10T11:42:34.824Z,16.30
2018-06-10T11:45:03.118Z,14.77
2018-06-10T11:47:31.451Z,13.17
2018-06-10T11:49:59.722Z,13.40
2018-06-10T11:52:28.027Z,14.07
2018-06-10T11:54:56.344Z,13.20
2018-06-10T11:57:24.680Z,13.90
2018-06-10T11:59:52.933Z,12.00
2018-06-10T12:02:21.201Z,14.07
2018-06-10T12:04:49.569Z,12.00
2018-06-10T12:07:17.907Z,12.00
2018-06-10T12:09:46.193Z,11.63
2018-06-10T12:12:14.467Z,11.90
2018-06-10T12:14:43.325Z,12.30
2018-06-10T12:17:11.609Z,12.33
2018-06-10T12:19:39.913Z,11.73
2018-06-10T12:22:08.171Z,10.40
2018-06-10T12:24:36.431Z,11.30
2018-06-10T12:27:04.745Z,10.68
2018-06-10T12:29:32.997Z,10.63
2018-06-10T12:32:01.390Z,10.82
2018-06-10T12:34:29.665Z,10.78
2018-06-10T12:36:58.168Z,10.32
2018-06-10T12:39:26.413Z,8.80
2018-06-10T12:41:54.690Z,9.23
2018-06-10T12:44:22.929Z,9.08
2018-06-10T12:46:51.193Z,9.40
2018-06-10T12:49:19.497Z,11.05
2018-06-10T12:51:47.714Z,9.30
2018-06-10T12:54:15.964Z,9.35
2018-06-10T12:56:44.221Z,8.73
2018-06-10T12:59:12.493Z,8.80
2018-06-10T13:01:40.793Z,8.55
2018-06-10T13:04:09.065Z,17.70
2018-06-10T13:06:37.341Z,28.15
2018-06-10T13:09:07.870Z,8.88
2018-06-10T13:11:36.213Z,8.18
2018-06-10T13:14:04.512Z,7.72
2018-06-10T13:16:32.865Z,8.23
2018-06-10T13:19:01.213Z,8.50
2018-06-10T13:21:29.573Z,7.78
2018-06-10T13:23:57.840Z,7.10
2018-06-10T13:26:26.137Z,7.50
2018-06-10T13:28:54.508Z,7.20
2018-06-10T13:31:23.008Z,7.87
2018-06-10T13:33:51.367Z,7.03
2018-06-10T13:36:19.639Z,7.20
2018-06-10T13:38:48.240Z,7.13
2018-06-10T13:41:16.528Z,6.97
2018-06-10T13:43:44.865Z,9.00
2018-06-10T13:46:13.164Z,6.90
2018-06-10T13:48:41.413Z,7.50
2018-06-10T13:51:09.660Z,7.53
2018-06-10T13:53:38.028Z,7.90
2018-06-10T13:56:06.360Z,7.80
2018-06-10T13:58:34.723Z,7.37
2018-06-10T14:01:03.016Z,8.50
2018-06-10T14:03:31.385Z,8.30
2018-06-10T14:05:59.674Z,7.37
2018-06-10T14:08:27.985Z,8.03
2018-06-10T14:10:56.262Z,7.73
2018-06-10T14:13:24.609Z,7.83
2018-06-10T14:15:53.012Z,6.53
2018-06-10T14:18:21.357Z,6.30
2018-06-10T14:20:49.712Z,7.03
2018-06-10T14:23:18.013Z,6.85
2018-06-10T14:25:46.402Z,5.85
2018-06-10T14:28:14.749Z,6.08
2018-06-10T14:30:43.013Z,5.78
2018-06-10T14:33:11.311Z,4.92
2018-06-10T14:35:39.785Z,5.00
2018-06-10T14:38:08.053Z,4.87
2018-06-10T14:40:36.305Z,4.42
2018-06-10T14:43:04.609Z,4.70
2018-06-10T14:45:32.872Z,4.90
2018-06-10T14:48:01.130Z,4.08
2018-06-10T14:50:29.436Z,4.85
2018-06-10T14:52:57.699Z,4.30
2018-06-10T14:55:27.702Z,4.95
2018-06-10T14:57:55.989Z,5.40
2018-06-10T15:00:24.298Z,5.72
2018-06-10T15:02:52.565Z,5.25
2018-06-10T15:05:20.879Z,4.92
2018-06-10T15:07:49.201Z,4.62
2018-06-10T15:10:17.518Z,4.95
2018-06-10T15:12:45.773Z,5.80
2018-06-10T15:15:14.151Z,5.97
2018-06-10T15:17:42.430Z,5.53
2018-06-10T15:20:10.689Z,5.20
2018-06-10T15:22:39.045Z,4.85
2018-06-10T15:25:07.349Z,4.97
2018-06-10T15:27:35.622Z,5.83
2018-06-10T15:30:03.943Z,5.08
2018-06-10T15:32:32.738Z,5.10
2018-06-10T15:35:00.985Z,5.45
2018-06-10T15:37:29.329Z,4.92
2018-06-10T15:39:57.618Z,4.80
2018-06-10T15:42:26.067Z,4.90
2018-06-10T15:44:54.360Z,4.80
2018-06-10T15:47:22.664Z,4.30
2018-06-10T15:49:51.020Z,4.90
2018-06-10T15:52:19.402Z,5.03
2018-06-10T15:54:47.688Z,5.50
2018-06-10T15:57:15.984Z,4.45
2018-06-10T15:59:44.328Z,5.08
2018-06-10T16:02:12.625Z,4.90
2018-06-10T16:04:40.887Z,5.00
2018-06-10T16:07:09.164Z,5.10
2018-06-10T16:09:37.464Z,4.90
2018-06-10T16:12:05.810Z,5.30
2018-06-10T16:14:34.090Z,5.80
2018-06-10T16:17:02.404Z,4.70
2018-06-10T16:19:30.802Z,5.30
2018-06-10T16:21:59.218Z,5.40
2018-06-10T16:24:27.573Z,5.83
2018-06-10T16:26:55.841Z,4.97
2018-06-10T16:29:24.257Z,9.50
2018-06-10T16:31:52.531Z,7.10
2018-06-10T16:34:20.805Z,5.63
2018-06-10T16:36:49.081Z,5.43
2018-06-10T16:39:17.373Z,6.23
2018-06-10T16:41:45.640Z,7.33
2018-06-10T16:44:13.928Z,6.07
2018-06-10T16:46:42.218Z,6.50
2018-06-10T16:49:10.533Z,6.87
2018-06-10T16:51:38.834Z,7.00
2018-06-10T16:54:07.124Z,7.97
2018-06-10T16:56:36.000Z,10.17
2018-06-10T16:59:04.286Z,13.67
2018-06-10T17:01:32.668Z,8.33
2018-06-10T17:04:00.975Z,7.00
2018-06-10T17:06:30.110Z,8.83
2018-06-10T17:08:58.421Z,8.40
2018-06-10T17:11:26.823Z,8.67
2018-06-10T17:13:55.167Z,8.23
2018-06-10T17:16:23.453Z,8.23
2018-06-10T17:18:51.725Z,8.53
2018-06-10T17:21:20.001Z,9.10
2018-06-10T17:23:48.297Z,8.33
2018-06-10T17:26:16.649Z,9.27
2018-06-10T17:28:45.545Z,8.33
2018-06-10T17:31:14.345Z,9.03
2018-06-10T17:33:42.611Z,7.73
2018-06-10T17:36:10.873Z,8.17
2018-06-10T17:38:39.184Z,9.03
2018-06-10T17:41:07.443Z,8.10
2018-06-10T17:43:35.720Z,9.57
2018-06-10T17:46:04.092Z,8.90
2018-06-10T17:48:32.389Z,9.23
2018-06-10T17:51:00.762Z,9.70
2018-06-10T17:53:29.143Z,12.03
2018-06-10T17:55:57.404Z,9.30
2018-06-10T17:58:25.771Z,9.27
2018-06-10T18:00:54.072Z,9.80
2018-06-10T18:03:22.326Z,10.77
2018-06-10T18:05:50.589Z,10.30
2018-06-10T18:08:18.993Z,10.53
2018-06-10T18:10:47.349Z,11.20
2018-06-10T18:13:15.827Z,10.70
2018-06-10T18:15:44.219Z,11.00
2018-06-10T18:18:12.997Z,10.27
2018-06-10T18:20:41.285Z,10.47
2018-06-10T18:23:09.657Z,10.67
2018-06-10T18:25:37.933Z,10.57
2018-06-10T18:28:06.207Z,11.47
2018-06-10T18:30:35.285Z,10.80
2018-06-10T18:33:03.579Z,11.73
2018-06-10T18:35:31.861Z,11.37
2018-06-10T18:38:00.169Z,11.43
2018-06-10T18:40:28.508Z,12.27
2018-06-10T18:42:56.776Z,12.03
2018-06-10T18:45:25.092Z,12.13
2018-06-10T18:47:53.354Z,11.53
2018-06-10T18:50:21.714Z,11.60
2018-06-10T18:52:50.010Z,13.17
2018-06-10T18:55:19.238Z,12.97
2018-06-10T18:57:47.572Z,11.87
2018-06-10T19:00:15.835Z,13.67
2018-06-10T19:02:44.140Z,12.93
2018-06-10T19:05:12.502Z,14.00
2018-06-10T19:07:40.853Z,12.23
2018-06-10T19:10:09.247Z,13.23
2018-06-10T19:12:37.508Z,12.47
2018-06-10T19:15:05.815Z,13.27
2018-06-10T19:17:34.089Z,13.53
2018-06-10T19:20:02.460Z,12.10
2018-06-10T19:22:30.857Z,14.70
2018-06-10T19:24:59.208Z,18.80
2018-06-10T19:27:28.009Z,15.70
2018-06-10T19:29:56.397Z,14.00
2018-06-10T19:32:24.761Z,14.17
2018-06-10T19:34:53.037Z,14.33
2018-06-10T19:37:21.350Z,15.93
2018-06-10T19:39:49.985Z,18.53
2018-06-10T19:42:18.277Z,15.37
2018-06-10T19:44:46.639Z,15.53
2018-06-10T19:47:15.011Z,14.30
2018-06-10T19:49:43.360Z,15.07
2018-06-10T19:52:11.668Z,15.60
2018-06-10T19:54:39.952Z,13.73
2018-06-10T19:57:08.332Z,15.03
2018-06-10T19:59:37.480Z,14.70
2018-06-10T20:02:05.924Z,14.57
2018-06-10T20:04:34.220Z,14.80
2018-06-10T20:07:02.577Z,13.90
2018-06-10T20:09:31.042Z,14.30
2018-06-10T20:11:59.288Z,14.40
2018-06-10T20:14:27.569Z,13.83
2018-06-10T20:16:55.826Z,15.10
2018-06-10T20:19:24.088Z,17.47
2018-06-10T20:21:52.350Z,40.73
2018-06-10T20:24:20.635Z,16.80
2018-06-10T20:26:48.905Z,16.93
2018-06-10T20:29:17.179Z,17.87
2018-06-10T20:31:45.437Z,16.30
2018-06-10T20:34:13.808Z,17.97
2018-06-10T20:36:42.310Z,14.83
2018-06-10T20:39:10.661Z,15.50
2018-06-10T20:41:38.908Z,16.20
2018-06-10T20:44:07.227Z,15.83
2018-06-10T20:46:35.494Z,15.30
2018-06-10T20:49:03.873Z,16.30
2018-06-10T20:51:32.151Z,14.50
2018-06-10T20:54:00.468Z,16.50
2018-06-10T20:56:28.736Z,16.20
2018-06-10T20:58:57.020Z,15.10
2018-06-10T21:01:25.336Z,14.93
2018-06-10T21:03:53.612Z,15.10
2018-06-10T21:06:21.900Z,16.07
2018-06-10T21:08:50.173Z,15.03
2018-06-10T21:11:18.428Z,15.50
2018-06-10T21:13:46.735Z,15.97
2018-06-10T21:16:15.940Z,15.43
2018-06-10T21:18:44.294Z,17.00
2018-06-10T21:21:12.617Z,15.17
2018-06-10T21:23:40.889Z,14.73
2018-06-10T21:26:09.230Z,16.23
2018-06-10T21:28:37.497Z,15.47
2018-06-10T21:31:05.771Z,17.83
2018-06-10T21:33:34.622Z,16.40
2018-06-10T21:36:02.961Z,16.37
2018-06-10T21:38:31.333Z,15.87
2018-06-10T21:40:59.619Z,16.70
2018-06-10T21:43:27.998Z,16.40
2018-06-10T21:45:56.458Z,57.57
2018-06-10T21:48:24.829Z,15.50
2018-06-10T21:50:53.445Z,14.60
2018-06-10T21:53:21.897Z,16.40
2018-06-10T21:55:50.580Z,15.70
2018-06-10T21:58:18.904Z,16.40
2018-06-10T22:00:47.289Z,16.67
2018-06-10T22:03:15.629Z,17.07
2018-06-10T22:05:44.044Z,15.43
2018-06-10T22:08:12.368Z,16.62
2018-06-10T22:10:40.636Z,15.43
2018-06-10T22:13:08.924Z,16.27
2018-06-10T22:15:37.188Z,16.67
2018-06-10T22:18:05.594Z,15.50
2018-06-10T22:20:33.985Z,16.10
2018-06-10T22:23:02.322Z,17.13
2018-06-10T22:25:30.638Z,16.60
2018-06-10T22:27:59.214Z,16.07
2018-06-10T22:30:28.141Z,15.93
2018-06-10T22:32:56.476Z,16.47
2018-06-10T22:35:24.842Z,16.57
2018-06-10T22:37:53.129Z,16.27
2018-06-10T22:40:21.413Z,15.20
2018-06-10T22:42:49.687Z,16.17
2018-06-10T22:45:18.185Z,16.33
2018-06-10T22:47:46.537Z,16.50
2018-06-10T22:50:14.951Z,15.23
2018-06-10T22:52:43.204Z,17.67
2018-06-10T22:55:11.565Z,16.30
2018-06-10T22:57:39.869Z,16.77
2018-06-10T23:00:08.437Z,16.60
2018-06-10T23:02:36.705Z,17.90
2018-06-10T23:05:05.083Z,17.37
2018-06-10T23:07:33.349Z,18.40
2018-06-10T23:10:01.625Z,17.57
2018-06-10T23:12:29.959Z,18.60
2018-06-10T23:14:58.284Z,18.30
2018-06-10T23:17:26.593Z,17.40
2018-06-10T23:19:54.960Z,18.00
2018-06-10T23:22:23.344Z,18.00
2018-06-10T23:24:51.702Z,19.00
2018-06-10T23:27:20.090Z,18.53
2018-06-10T23:29:49.075Z,16.80
2018-06-10T23:32:17.347Z,18.87
2018-06-10T23:34:45.632Z,18.40
2018-06-10T23:37:14.004Z,18.83
2018-06-10T23:39:42.261Z,19.90
2018-06-10T23:42:10.529Z,19.27
2018-06-10T23:44:38.793Z,18.60
2018-06-10T23:47:07.061Z,17.60
2018-06-10T23:49:35.331Z,18.57
2018-06-10T23:52:03.650Z,19.67
2018-06-10T23:54:31.900Z,18.80
2018-06-10T23:57:00.452Z,18.20
2018-06-10T23:59:28.884Z,18.13
